Time;durP1;ratioP1;P1;durP2;ratioP2;P2;SDS_P1;SDS_P2;PMS_P1;PMS_P2;Temp;Humidity;BMP_temperature;BMP_pressure;BME280_temperature;BME280_humidity;BME280_pressure;Samples;Min_cycle;Max_cycle;Signal;HPM_P1;HPM_P2
2023/11/19 00:02:19;;;;;;;0.00;0.00;;;;;;;;;;6184147;23;20334;-91
2023/11/19 00:04:45;;;;;;;0.00;0.00;;;;;;;;;;6184122;23;20005;-92
2023/11/19 00:07:13;;;;;;;0.10;0.10;;;;;;;;;;6184330;23;20005;-91
2023/11/19 00:09:39;;;;;;;0.10;0.10;;;;;;;;;;6183591;23;20005;-90
2023/11/19 00:12:06;;;;;;;0.10;0.10;;;9.10;99.90;;;;;;6182844;23;20093;-92
2023/11/19 00:14:32;;;;;;;0.10;0.10;;;;;;;;;;6183607;23;20033;-91
2023/11/19 00:16:58;;;;;;;0.00;0.00;;;;;;;;;;6185323;23;20012;-90
2023/11/19 00:19:24;;;;;;;0.10;0.10;;;;;;;;;;6185218;23;20012;-92
2023/11/19 00:21:50;;;;;;;0.00;0.00;;;;;;;;;;6185802;23;20067;-90
2023/11/19 00:24:17;;;;;;;0.10;0.10;;;;;;;;;;6186387;23;20005;-91
2023/11/19 00:26:43;;;;;;;0.10;0.10;;;;;;;;;;6184375;23;20450;-90
2023/11/19 00:29:09;;;;;;;0.10;0.10;;;;;;;;;;6184737;23;20004;-91
2023/11/19 00:31:35;;;;;;;0.03;0.03;;;;;;;;;;6185470;23;20009;-91
2023/11/19 00:34:02;;;;;;;0.03;0.03;;;;;;;;;;6183193;23;20319;-91
2023/11/19 00:36:28;;;;;;;0.10;0.10;;;;;;;;;;6183511;23;20021;-91
2023/11/19 00:38:54;;;;;;;0.10;0.10;;;;;;;;;;6182945;23;20087;-91
2023/11/19 00:41:20;;;;;;;0.00;0.00;;;;;;;;;;6184225;23;20011;-90
2023/11/19 00:43:46;;;;;;;0.10;0.10;;;;;;;;;;6182601;23;20446;-90
2023/11/19 00:46:13;;;;;;;0.00;0.00;;;;;;;;;;6183540;23;20028;-91
2023/11/19 00:48:39;;;;;;;0.10;0.10;;;;;;;;;;6185032;23;20430;-91
2023/11/19 00:51:05;;;;;;;0.00;0.00;;;9.70;99.90;;;;;;6185643;23;20016;-91
2023/11/19 00:53:33;;;;;;;0.10;0.10;;;;;;;;;;6183738;23;20041;-90
2023/11/19 00:55:59;;;;;;;0.00;0.00;;;;;;;;;;6186346;23;20013;-91
2023/11/19 00:58:25;;;;;;;0.00;0.00;;;;;;;;;;6183854;23;20009;-91
2023/11/19 01:00:52;;;;;;;0.05;0.05;;;;;;;;;;6183676;23;20471;-91
2023/11/19 01:03:17;;;;;;;0.00;0.00;;;;;;;;;;6183865;23;20037;-90
2023/11/19 01:05:44;;;;;;;0.00;0.00;;;;;;;;;;6183129;23;20008;-91
2023/11/19 01:08:10;;;;;;;0.10;0.10;;;;;;;;;;6183796;23;20028;-91
2023/11/19 01:10:39;;;;;;;0.10;0.10;;;9.90;99.90;;;;;;6185406;23;20379;-89
2023/11/19 01:13:05;;;;;;;0.10;0.10;;;;;;;;;;6184681;23;20012;-91
2023/11/19 01:15:32;;;;;;;0.03;0.03;;;;;;;;;;6184699;23;20005;-91
2023/11/19 01:17:57;;;;;;;0.00;0.00;;;;;;;;;;6185028;23;20013;-91
2023/11/19 01:20:24;;;;;;;0.00;0.00;;;;;;;;;;6184479;23;20415;-90
2023/11/19 01:22:50;;;;;;;0.10;0.10;;;;;;;;;;6186959;23;20000;-90
2023/11/19 01:25:16;;;;;;;0.00;0.00;;;;;;;;;;6186615;23;20051;-91
2023/11/19 01:27:42;;;;;;;0.00;0.00;;;;;;;;;;6186622;23;20036;-90
2023/11/19 01:30:12;;;;;;;0.00;0.00;;;10.00;99.90;;;;;;6185345;23;20009;-89
2023/11/19 01:32:39;;;;;;;0.00;0.00;;;;;;;;;;6186475;23;20005;-90
2023/11/19 01:35:05;;;;;;;0.00;0.00;;;;;;;;;;6186992;23;20086;-91
2023/11/19 01:37:32;;;;;;;0.00;0.00;;;;;;;;;;6185343;23;20009;-91
2023/11/19 01:39:58;;;;;;;0.00;0.00;;;;;;;;;;6185215;23;20005;-91
2023/11/19 01:42:27;;;;;;;0.00;0.00;;;;;;;;;;6184017;23;20028;-91
2023/11/19 01:44:59;;;;;;;0.00;0.00;;;10.20;99.90;;;;;;6186584;23;20009;-91
2023/11/19 01:47:30;;;;;;;0.10;0.10;;;10.20;99.90;;;;;;6186059;23;20005;-91
2023/11/19 01:49:56;;;;;;;0.00;0.00;;;10.20;99.90;;;;;;6187691;23;20004;-92
2023/11/19 01:52:22;;;;;;;0.00;0.00;;;;;;;;;;6187073;23;20005;-91
2023/11/19 01:54:49;;;;;;;0.00;0.00;;;;;;;;;;6187489;23;20040;-91
2023/11/19 01:57:15;;;;;;;0.00;0.00;;;;;;;;;;6187086;23;20013;-91
2023/11/19 01:59:41;;;;;;;0.00;0.00;;;;;;;;;;6187364;23;20048;-92
2023/11/19 02:02:08;;;;;;;0.00;0.00;;;;;;;;;;6188418;23;20005;-91
2023/11/19 02:04:34;;;;;;;0.00;0.00;;;;;;;;;;6188044;23;20005;-91
2023/11/19 02:07:00;;;;;;;0.00;0.00;;;;;;;;;;6188675;23;20001;-92
2023/11/19 02:09:27;;;;;;;0.00;0.00;;;;;;;;;;6188924;23;20036;-91
2023/11/19 02:11:53;;;;;;;0.00;0.00;;;;;;;;;;6190118;23;20036;-90
2023/11/19 02:14:25;;;;;;;0.00;0.00;;;10.40;99.90;;;;;;6189524;23;20016;-91
2023/11/19 02:16:51;;;;;;;0.00;0.00;;;;;;;;;;6193938;23;20005;-89
2023/11/19 02:19:19;;;;;;;0.00;0.00;;;10.50;99.90;;;;;;6193576;23;20032;-90
2023/11/19 02:21:45;;;;;;;0.00;0.00;;;;;;;;;;6193194;23;20057;-91
2023/11/19 02:24:14;;;;;;;0.00;0.00;;;10.50;99.90;;;;;;6193128;23;20063;-92
2023/11/19 02:26:52;;;;;;;0.00;0.00;;;10.60;99.90;;;;;;6194000;23;20008;-90
2023/11/19 02:29:18;;;;;;;0.00;0.00;;;;;;;;;;6195132;23;20005;-91
2023/11/19 02:31:44;;;;;;;0.00;0.00;;;;;;;;;;6193942;23;20281;-88
2023/11/19 02:34:12;;;;;;;0.00;0.00;;;10.60;99.90;;;;;;6196380;23;20013;-91
2023/11/19 02:36:38;;;;;;;0.00;0.00;;;;;;;;;;6197275;23;20013;-87
2023/11/19 02:39:08;;;;;;;0.00;0.00;;;;;;;;;;6196731;23;20032;-87
2023/11/19 02:41:33;;;;;;;;;;;10.70;99.90;;;;;;6197565;22;20015;-87
2023/11/19 02:43:59;;;;;;;0.00;0.00;;;9.80;99.90;;;;;;6207009;22;19948;-89
2023/11/19 02:46:24;;;;;;;0.00;0.00;;;10.50;99.90;;;;;;6195272;23;20001;-89
2023/11/19 02:48:51;;;;;;;0.00;0.00;;;;;;;;;;6187090;23;20001;-90
2023/11/19 02:51:18;;;;;;;0.00;0.00;;;;;;;;;;6182899;23;20009;-88
2023/11/19 02:53:48;;;;;;;0.00;0.00;;;;;;;;;;6184887;23;20075;-91
2023/11/19 02:56:25;;;;;;;0.00;0.00;;;;;;;;;;6185639;23;20005;-90
2023/11/19 02:58:51;;;;;;;0.00;0.00;;;;;;;;;;6185535;23;20136;-90
2023/11/19 03:01:29;;;;;;;0.00;0.00;;;10.80;99.90;;;;;;6184823;23;20151;-91
2023/11/19 03:03:57;;;;;;;0.00;0.00;;;10.80;99.90;;;;;;6186425;23;20269;-90
2023/11/19 03:06:23;;;;;;;0.00;0.00;;;;;;;;;;6183685;23;20105;-91
2023/11/19 03:08:49;;;;;;;0.05;0.05;;;;;;;;;;6185000;23;20047;-90
2023/11/19 03:11:15;;;;;;;0.00;0.00;;;;;;;;;;6188098;23;20037;-91
2023/11/19 03:13:41;;;;;;;0.00;0.00;;;;;;;;;;6187718;23;20009;-90
2023/11/19 03:16:07;;;;;;;0.00;0.00;;;10.80;99.90;;;;;;6187751;23;20040;-92
2023/11/19 03:18:33;;;;;;;0.00;0.00;;;;;;;;;;6187527;23;20013;-91
2023/11/19 03:20:59;;;;;;;0.00;0.00;;;;;;;;;;6187282;23;20331;-92
2023/11/19 03:23:28;;;;;;;0.00;0.00;;;;;;;;;;6184604;23;20005;-91
2023/11/19 03:25:55;;;;;;;0.00;0.00;;;;;;;;;;6187820;23;20001;-91
2023/11/19 03:28:21;;;;;;;0.00;0.00;;;;;;;;;;6188125;23;20001;-91
2023/11/19 03:30:47;;;;;;;0.00;0.00;;;;;;;;;;6188763;23;20009;-90
2023/11/19 03:33:13;;;;;;;0.00;0.00;;;;;;;;;;6188626;23;20401;-90
2023/11/19 03:35:40;;;;;;;0.10;0.10;;;;;;;;;;6186645;23;20001;-91
2023/11/19 03:38:06;;;;;;;0.00;0.00;;;;;;;;;;6188713;23;20009;-92
2023/11/19 03:40:32;;;;;;;0.00;0.00;;;;;;;;;;6187791;23;20005;-90
2023/11/19 03:42:58;;;;;;;0.00;0.00;;;;;;;;;;6187765;23;20434;-90
2023/11/19 03:45:25;;;;;;;0.00;0.00;;;;;;;;;;6186278;23;20016;-91
2023/11/19 03:47:51;;;;;;;0.00;0.00;;;;;;;;;;6187507;23;20464;-91
2023/11/19 03:50:19;;;;;;;0.00;0.00;;;;;;;;;;6187043;23;20001;-90
2023/11/19 03:52:45;;;;;;;0.00;0.00;;;;;;;;;;6186700;23;20028;-90
2023/11/19 03:55:12;;;;;;;0.00;0.00;;;;;;;;;;6188127;23;20009;-90
2023/11/19 03:57:38;;;;;;;0.00;0.00;;;11.40;99.90;;;;;;6188049;23;20013;-91
2023/11/19 04:00:13;;;;;;;0.10;0.10;;;11.40;99.90;;;;;;6188067;23;20004;-89
2023/11/19 04:02:39;;;;;;;0.00;0.00;;;;;;;;;;6187542;23;20065;-92
2023/11/19 04:05:06;;;;;;;0.00;0.00;;;11.40;99.90;;;;;;6186004;23;20005;-90
2023/11/19 04:07:32;;;;;;;0.00;0.00;;;;;;;;;;6188016;23;20709;-92
2023/11/19 04:09:58;;;;;;;0.00;0.00;;;11.50;99.90;;;;;;6186941;23;20005;-91
2023/11/19 04:12:24;;;;;;;0.00;0.00;;;11.50;99.90;;;;;;6188420;23;20278;-90
2023/11/19 04:14:50;;;;;;;0.00;0.00;;;11.40;99.90;;;;;;6188905;23;20005;-92
2023/11/19 04:17:16;;;;;;;0.00;0.00;;;;;;;;;;6187951;23;20338;-90
2023/11/19 04:19:43;;;;;;;0.00;0.00;;;;;;;;;;6186807;23;20008;-90
2023/11/19 04:22:09;;;;;;;0.00;0.00;;;;;;;;;;6189447;23;20013;-91
2023/11/19 04:24:35;;;;;;;0.00;0.00;;;11.50;99.90;;;;;;6189103;23;20019;-91
2023/11/19 04:27:01;;;;;;;0.00;0.00;;;;;;;;;;6189900;23;20005;-91
2023/11/19 04:29:27;;;;;;;0.00;0.00;;;;;;;;;;6187933;23;20461;-91
2023/11/19 04:31:52;;;;;;;0.00;0.00;;;11.50;99.90;;;;;;6187860;23;20001;-91
2023/11/19 04:34:18;;;;;;;0.00;0.00;;;;;;;;;;6188851;23;20399;-90
2023/11/19 04:36:44;;;;;;;0.00;0.00;;;;;;;;;;6188450;23;20016;-90
2023/11/19 04:39:15;;;;;;;0.00;0.00;;;11.60;99.90;;;;;;6187889;23;20009;-91
2023/11/19 04:41:52;;;;;;;0.00;0.00;;;11.60;99.90;;;;;;6188597;23;20016;-92
2023/11/19 04:44:18;;;;;;;0.00;0.00;;;;;;;;;;6186029;23;20144;-90
2023/11/19 04:46:44;;;;;;;0.00;0.00;;;11.60;99.90;;;;;;6186913;23;19997;-90
2023/11/19 04:49:14;;;;;;;0.00;0.00;;;;;;;;;;6187558;23;20318;-91
2023/11/19 04:51:44;;;;;;;0.00;0.00;;;11.60;99.90;;;;;;6187488;23;20005;-91
2023/11/19 04:54:10;;;;;;;0.00;0.00;;;;;;;;;;6186443;23;20016;-90
2023/11/19 04:56:37;;;;;;;0.00;0.00;;;;;;;;;;6188131;23;20435;-90
2023/11/19 04:59:03;;;;;;;0.00;0.00;;;;;;;;;;6187245;23;20009;-91
2023/11/19 05:01:29;;;;;;;0.00;0.00;;;;;;;;;;6186267;23;20076;-90
2023/11/19 05:03:59;;;;;;;0.00;0.00;;;11.70;99.90;;;;;;6187980;23;20116;-90
2023/11/19 05:06:29;;;;;;;0.00;0.00;;;11.70;99.90;;;;;;6186647;23;20009;-91
2023/11/19 05:08:55;;;;;;;0.00;0.00;;;;;;;;;;6185407;23;20008;-90
2023/11/19 05:11:21;;;;;;;0.00;0.00;;;;;;;;;;6186918;23;20016;-91
2023/11/19 05:13:47;;;;;;;0.00;0.00;;;;;;;;;;6187118;23;20005;-90
2023/11/19 05:16:14;;;;;;;0.00;0.00;;;;;;;;;;6188067;23;20135;-90
2023/11/19 05:18:40;;;;;;;0.00;0.00;;;11.60;99.90;;;;;;6186277;23;20005;-90
2023/11/19 05:21:09;;;;;;;0.00;0.00;;;;;;;;;;6183694;23;20501;-91
2023/11/19 05:23:35;;;;;;;0.00;0.00;;;;;;;;;;6187578;23;20010;-90
2023/11/19 05:26:01;;;;;;;0.00;0.00;;;11.70;99.90;;;;;;6187915;23;20032;-90
2023/11/19 05:28:27;;;;;;;0.00;0.00;;;;;;;;;;6185979;23;20002;-92
2023/11/19 05:30:53;;;;;;;0.00;0.00;;;;;;;;;;6186869;23;20392;-90
2023/11/19 05:33:19;;;;;;;0.00;0.00;;;;;;;;;;6187229;23;20071;-90
2023/11/19 05:35:45;;;;;;;0.00;0.00;;;;;;;;;;6187279;23;20009;-91
2023/11/19 05:38:11;;;;;;;0.00;0.00;;;;;;;;;;6187308;23;20009;-91
2023/11/19 05:40:38;;;;;;;0.00;0.00;;;;;;;;;;6186284;23;20015;-91
2023/11/19 05:43:05;;;;;;;0.00;0.00;;;;;;;;;;6188067;23;20015;-92
2023/11/19 05:45:31;;;;;;;0.00;0.00;;;;;;;;;;6187932;23;20032;-89
2023/11/19 05:47:57;;;;;;;0.00;0.00;;;;;;;;;;6187824;23;20005;-92
2023/11/19 05:50:23;;;;;;;0.00;0.00;;;;;;;;;;6186765;23;20012;-89
2023/11/19 05:52:49;;;;;;;0.00;0.00;;;;;;;;;;6187679;23;20008;-90
2023/11/19 05:55:15;;;;;;;0.00;0.00;;;;;;;;;;6187352;23;20002;-89
2023/11/19 05:57:42;;;;;;;0.00;0.00;;;;;;;;;;6187069;23;20001;-90
2023/11/19 06:00:08;;;;;;;0.00;0.00;;;;;;;;;;6187276;23;20013;-87
2023/11/19 06:02:34;;;;;;;0.00;0.00;;;;;;;;;;6187738;23;20001;-90
2023/11/19 06:05:01;;;;;;;0.00;0.00;;;11.80;99.90;;;;;;6186111;23;19998;-91
2023/11/19 06:07:27;;;;;;;0.00;0.00;;;;;;;;;;6187198;23;20086;-92
2023/11/19 06:09:53;;;;;;;0.00;0.00;;;;;;;;;;6188542;23;20001;-92
2023/11/19 06:12:19;;;;;;;0.00;0.00;;;;;;;;;;6188805;23;20021;-91
2023/11/19 06:14:45;;;;;;;0.00;0.00;;;;;;;;;;6189461;23;20342;-91
2023/11/19 06:17:12;;;;;;;0.00;0.00;;;;;;;;;;6188468;23;20460;-91
2023/11/19 06:19:38;;;;;;;0.00;0.00;;;;;;;;;;6187070;23;20016;-89
2023/11/19 06:22:04;;;;;;;0.10;0.10;;;;;;;;;;6190995;23;20466;-92
2023/11/19 06:24:30;;;;;;;0.00;0.00;;;;;;;;;;6193332;23;20060;-91
2023/11/19 06:26:56;;;;;;;0.00;0.00;;;;;;;;;;6189363;23;20338;-91
2023/11/19 06:29:22;;;;;;;0.00;0.00;;;;;;;;;;6191308;23;19997;-92
2023/11/19 06:31:49;;;;;;;0.00;0.00;;;;;;;;;;6192044;23;20013;-91
2023/11/19 06:34:15;;;;;;;0.00;0.00;;;;;;;;;;6194653;23;20354;-91
2023/11/19 06:36:41;;;;;;;0.00;0.00;;;;;;;;;;6192732;23;20009;-90
2023/11/19 06:39:07;;;;;;;0.00;0.00;;;;;;;;;;6196134;23;20004;-92
2023/11/19 06:41:32;;;;;;;0.00;0.00;;;;;;;;;;6195128;23;20005;-91
2023/11/19 06:43:59;;;;;;;0.00;0.00;;;11.30;99.90;;;;;;6188247;23;20016;-90
2023/11/19 06:46:25;;;;;;;0.00;0.00;;;;;;;;;;6185889;23;20024;-90
2023/11/19 06:48:51;;;;;;;0.00;0.00;;;;;;;;;;6187455;23;20013;-91
2023/11/19 06:51:17;;;;;;;0.00;0.00;;;;;;;;;;6186807;23;20020;-91
2023/11/19 06:53:44;;;;;;;0.00;0.00;;;;;;;;;;6187174;23;20064;-91
2023/11/19 06:56:28;;;;;;;0.00;0.00;;;11.10;99.90;;;;;;6186454;23;20005;-91
2023/11/19 06:58:54;;;;;;;0.00;0.00;;;;;;;;;;6183757;23;20366;-89
2023/11/19 07:01:20;;;;;;;0.00;0.00;;;;;;;;;;6183752;23;20156;-90
2023/11/19 07:03:46;;;;;;;0.00;0.00;;;;;;;;;;6186180;23;20009;-90
2023/11/19 07:06:15;;;;;;;0.00;0.00;;;;;;;;;;6185518;23;20062;-92
2023/11/19 07:08:47;;;;;;;0.00;0.00;;;11.20;99.90;;;;;;6183769;23;20038;-90
2023/11/19 07:11:17;;;;;;;0.00;0.00;;;;;;;;;;6184151;23;20013;-91
2023/11/19 07:13:43;;;;;;;0.00;0.00;;;;;;;;;;6186345;23;20453;-91
2023/11/19 07:16:11;;;;;;;0.00;0.00;;;;;;;;;;6187949;23;20020;-91
2023/11/19 07:18:37;;;;;;;0.00;0.00;;;;;;;;;;6185751;23;20032;-90
2023/11/19 07:21:04;;;;;;;0.00;0.00;;;11.30;99.90;;;;;;6187006;23;20434;-90
2023/11/19 07:23:31;;;;;;;0.00;0.00;;;;;;;;;;6186876;23;20345;-90
2023/11/19 07:25:56;;;;;;;0.00;0.00;;;;;;;;;;6187099;23;20366;-91
2023/11/19 07:28:22;;;;;;;0.00;0.00;;;;;;;;;;6188454;23;20375;-91
2023/11/19 07:30:49;;;;;;;0.00;0.00;;;;;;;;;;6187539;23;20009;-91
2023/11/19 07:33:15;;;;;;;0.00;0.00;;;;;;;;;;6187417;23;20001;-90
2023/11/19 07:35:42;;;;;;;0.00;0.00;;;;;;;;;;6187272;23;20001;-91
2023/11/19 07:38:08;;;;;;;0.00;0.00;;;;;;;;;;6187656;23;20017;-91
2023/11/19 07:40:34;;;;;;;0.00;0.00;;;;;;;;;;6187494;23;20342;-89
2023/11/19 07:43:00;;;;;;;0.00;0.00;;;;;;;;;;6187674;23;20068;-90
2023/11/19 07:45:27;;;;;;;0.00;0.00;;;;;;;;;;6187763;23;20005;-91
2023/11/19 07:47:54;;;;;;;0.00;0.00;;;;;;;;;;6186262;23;20504;-90
2023/11/19 07:50:20;;;;;;;0.00;0.00;;;;;;;;;;6187425;23;20001;-90
2023/11/19 07:52:46;;;;;;;0.00;0.00;;;;;;;;;;6185569;23;20012;-92
2023/11/19 07:55:12;;;;;;;0.00;0.00;;;11.50;99.90;;;;;;6185572;23;20500;-91
2023/11/19 07:57:38;;;;;;;0.00;0.00;;;;;;;;;;6189400;23;20064;-91
2023/11/19 08:00:04;;;;;;;0.00;0.00;;;11.60;99.90;;;;;;6189265;23;20095;-91
2023/11/19 08:02:30;;;;;;;0.00;0.00;;;;;;;;;;6189108;23;20009;-91
2023/11/19 08:04:56;;;;;;;0.00;0.00;;;;;;;;;;6189006;23;20084;-91
2023/11/19 08:07:22;;;;;;;0.00;0.00;;;;;;;;;;6188125;23;20013;-90
2023/11/19 08:09:48;;;;;;;0.00;0.00;;;;;;;;;;6187844;23;20443;-90
2023/11/19 08:12:15;;;;;;;0.00;0.00;;;;;;;;;;6188491;23;20355;-90
2023/11/19 08:14:41;;;;;;;0.00;0.00;;;;;;;;;;6187245;23;20039;-89
2023/11/19 08:17:07;;;;;;;0.00;0.00;;;;;;;;;;6187747;23;20020;-91
2023/11/19 08:19:33;;;;;;;0.00;0.00;;;11.70;99.90;;;;;;6187426;23;20005;-91
2023/11/19 08:21:59;;;;;;;0.00;0.00;;;14.90;99.90;;;;;;6187667;23;20012;-91
2023/11/19 08:24:24;;;;;;;0.00;0.00;;;;;;;;;;6187871;23;20439;-91
2023/11/19 08:26:50;;;;;;;0.00;0.00;;;;;;;;;;6187889;23;20012;-91
2023/11/19 08:29:16;;;;;;;0.00;0.00;;;;;;;;;;6185528;23;20059;-91
2023/11/19 08:31:43;;;;;;;0.00;0.00;;;;;;;;;;6187211;23;20031;-90
2023/11/19 08:34:09;;;;;;;0.00;0.00;;;;;;;;;;6188047;23;20012;-90
2023/11/19 08:36:35;;;;;;;0.00;0.00;;;;;;;;;;6187388;23;20005;-90
2023/11/19 08:39:01;;;;;;;0.00;0.00;;;;;;;;;;6188113;23;20005;-90
2023/11/19 08:41:27;;;;;;;0.00;0.00;;;;;;;;;;6187749;23;20025;-90
2023/11/19 08:43:53;;;;;;;0.00;0.00;;;;;;;;;;6187842;23;20020;-90
2023/11/19 08:46:19;;;;;;;0.00;0.00;;;;;;;;;;6185735;23;20043;-91
2023/11/19 08:48:45;;;;;;;0.00;0.00;;;;;;;;;;6184547;23;20132;-90
2023/11/19 08:51:11;;;;;;;0.00;0.00;;;;;;;;;;6186163;23;20088;-90
2023/11/19 08:53:37;;;;;;;0.00;0.00;;;;;;;;;;6185702;23;20031;-91
2023/11/19 08:56:03;;;;;;;0.00;0.00;;;11.80;99.90;;;;;;6185943;23;20458;-90
2023/11/19 08:58:30;;;;;;;0.00;0.00;;;;;;;;;;6185141;23;20019;-90
2023/11/19 09:00:56;;;;;;;0.00;0.00;;;;;;;;;;6185787;23;20064;-91
2023/11/19 09:03:22;;;;;;;0.00;0.00;;;;;;;;;;6186123;23;20005;-91
2023/11/19 09:05:48;;;;;;;0.00;0.00;;;;;;;;;;6185718;23;20001;-91
2023/11/19 09:08:13;;;;;;;0.00;0.00;;;11.80;99.90;;;;;;6185196;23;20065;-90
2023/11/19 09:10:39;;;;;;;0.00;0.00;;;11.60;99.90;;;;;;6184172;23;20040;-90
2023/11/19 09:13:05;;;;;;;0.00;0.00;;;;;;;;;;6185028;23;20001;-90
2023/11/19 09:15:31;;;;;;;0.00;0.00;;;;;;;;;;6184971;23;20532;-91
2023/11/19 09:17:57;;;;;;;0.00;0.00;;;;;;;;;;6184785;23;20000;-90
2023/11/19 09:20:22;;;;;;;0.00;0.00;;;;;;;;;;6184603;23;20008;-93
2023/11/19 09:22:49;;;;;;;0.00;0.00;;;;;;;;;;6184331;23;20009;-90
2023/11/19 09:25:17;;;;;;;0.00;0.00;;;;;;;;;;6184590;23;20004;-90
2023/11/19 09:27:44;;;;;;;0.00;0.00;;;;;;;;;;6185320;23;20453;-90
2023/11/19 09:30:10;;;;;;;0.00;0.00;;;11.70;99.90;;;;;;6183976;23;20001;-90
2023/11/19 09:32:37;;;;;;;0.00;0.00;;;11.70;99.90;;;;;;6185099;23;20001;-90
2023/11/19 09:35:03;;;;;;;0.00;0.00;;;;;;;;;;6183966;23;19997;-90
2023/11/19 09:37:29;;;;;;;0.00;0.00;;;;;;;;;;6183825;23;20005;-90
2023/11/19 09:39:55;;;;;;;0.00;0.00;;;;;;;;;;6183234;23;20092;-91
2023/11/19 09:42:21;;;;;;;0.00;0.00;;;;;;;;;;6183435;23;20020;-90
2023/11/19 09:44:47;;;;;;;0.00;0.00;;;11.70;99.90;;;;;;6182662;23;20005;-90
2023/11/19 09:47:14;;;;;;;0.00;0.00;;;11.70;99.90;;;;;;6182559;23;20083;-91
2023/11/19 09:49:40;;;;;;;0.00;0.00;;;;;;;;;;6183260;23;20031;-91
2023/11/19 09:52:06;;;;;;;0.00;0.00;;;11.70;99.90;;;;;;6183447;23;20005;-91
2023/11/19 09:54:32;;;;;;;0.00;0.00;;;;;;;;;;6184192;23;20004;-90
2023/11/19 09:57:02;;;;;;;0.00;0.00;;;;;;;;;;6183365;23;20277;-91
2023/11/19 09:59:29;;;;;;;0.00;0.00;;;11.80;99.90;;;;;;6183459;23;20008;-90
2023/11/19 10:01:56;;;;;;;0.00;0.00;;;;;;;;;;6182659;23;20382;-91
2023/11/19 10:04:22;;;;;;;0.00;0.00;;;;;;;;;;6183765;23;20001;-91
2023/11/19 10:06:50;;;;;;;0.00;0.00;;;11.90;99.90;;;;;;6183970;23;20001;-91
2023/11/19 10:09:17;;;;;;;0.00;0.00;;;;;;;;;;6181636;23;20031;-90
2023/11/19 10:11:43;;;;;;;0.00;0.00;;;;;;;;;;6182465;23;20005;-90
2023/11/19 10:14:09;;;;;;;0.00;0.00;;;12.00;99.90;;;;;;6183182;23;20009;-90
2023/11/19 10:16:35;;;;;;;0.00;0.00;;;;;;;;;;6183469;23;20084;-91
2023/11/19 10:19:02;;;;;;;0.00;0.00;;;12.20;99.90;;;;;;6182857;23;20012;-90
2023/11/19 10:21:28;;;;;;;0.00;0.00;;;;;;;;;;6184124;23;20001;-90
2023/11/19 10:23:59;;;;;;;0.00;0.00;;;12.10;99.90;;;;;;6183561;23;20449;-90
2023/11/19 10:26:26;;;;;;;0.00;0.00;;;12.10;99.90;;;;;;6184805;23;20088;-91
2023/11/19 10:28:53;;;;;;;0.00;0.00;;;;;;;;;;6184062;23;20012;-90
2023/11/19 10:31:24;;;;;;;0.00;0.00;;;12.00;99.90;;;;;;6183887;23;20009;-89
2023/11/19 10:33:51;;;;;;;0.00;0.00;;;;;;;;;;6184937;23;20529;-91
2023/11/19 10:36:17;;;;;;;0.00;0.00;;;;;;;;;;6184978;23;20067;-90
2023/11/19 10:38:55;;;;;;;0.00;0.00;;;11.70;99.90;;;;;;6186276;23;20008;-89
2023/11/19 10:41:30;;;;;;;0.00;0.00;;;11.70;99.90;;;;;;6185360;23;20446;-93
2023/11/19 10:43:56;;;;;;;0.00;0.00;;;;;;;;;;6135623;23;1226342;-90
2023/11/19 10:46:23;;;;;;;0.00;0.00;;;11.80;99.90;;;;;;6188805;23;20411;-89
2023/11/19 10:48:49;;;;;;;0.00;0.00;;;;;;;;;;6189982;23;20444;-92
2023/11/19 10:51:23;;;;;;;0.00;0.00;;;12.00;99.90;;;;;;6189783;23;20458;-91
2023/11/19 10:53:50;;;;;;;0.00;0.00;;;12.20;99.90;;;;;;6191644;23;20047;-91
2023/11/19 10:56:19;;;;;;;0.00;0.00;;;;;;;;;;6191973;23;20434;-89
2023/11/19 10:58:48;;;;;;;0.00;0.00;;;;;;;;;;6191841;23;20009;-90
2023/11/19 11:01:20;;;;;;;0.00;0.00;;;12.60;99.90;;;;;;6192881;23;20028;-89
2023/11/19 11:03:46;;;;;;;0.00;0.00;;;;;;;;;;6193583;23;20001;-89
2023/11/19 11:06:13;;;;;;;0.00;0.00;;;12.70;99.90;;;;;;6193313;23;20012;-89
2023/11/19 11:08:39;;;;;;;0.00;0.00;;;;;;;;;;6191922;23;20028;-86
2023/11/19 11:11:07;;;;;;;0.00;0.00;;;12.90;99.90;;;;;;6189344;23;20005;-87
2023/11/19 11:13:33;;;;;;;0.00;0.00;;;12.90;99.90;;;;;;6208540;22;20060;-88
2023/11/19 11:16:00;;;;;;;0.00;0.00;;;12.90;99.90;;;;;;6202132;22;20100;-89
2023/11/19 11:18:26;;;;;;;0.00;0.00;;;;;;;;;;6189205;23;20033;-89
2023/11/19 11:21:09;;;;;;;0.00;0.00;;;12.90;99.90;;;;;;6183646;23;20445;-91
2023/11/19 11:23:57;;;;;;;0.00;0.00;;;16.50;99.90;;;;;;6182953;23;19997;-89
2023/11/19 11:27:08;;;;;;;0.00;0.00;;;13.00;99.90;;;;;;6182900;23;20516;-91
2023/11/19 11:29:40;;;;;;;0.00;0.00;;;13.20;99.90;;;;;;6183460;23;20017;-91
2023/11/19 11:32:29;;;;;;;0.00;0.00;;;13.00;99.90;;;;;;6185041;23;20005;-91
2023/11/19 11:35:19;;;;;;;0.00;0.00;;;13.10;99.90;;;;;;6184971;23;20023;-90
2023/11/19 11:37:47;;;;;;;0.00;0.00;;;13.20;99.90;;;;;;6185340;23;20020;-90
2023/11/19 11:40:18;;;;;;;0.00;0.00;;;13.10;99.90;;;;;;6185446;23;20005;-91
2023/11/19 11:42:44;;;;;;;0.00;0.00;;;;;;;;;;6185364;23;20016;-92
2023/11/19 11:45:12;;;;;;;0.00;0.00;;;13.40;99.90;;;;;;6185035;23;20429;-91
2023/11/19 11:47:45;;;;;;;0.00;0.00;;;14.90;99.90;;;;;;6182579;23;20083;-89
2023/11/19 11:50:12;;;;;;;0.00;0.00;;;13.30;99.90;;;;;;6193326;23;20001;-89
2023/11/19 11:53:22;;;;;;;0.00;0.00;;;13.20;99.90;;;;;;6191268;23;20575;-85
2023/11/19 11:55:58;;;;;;;0.00;0.00;;;;;;;;;;6201532;23;20213;-91
2023/11/19 11:58:37;;;;;;;0.10;0.10;;;12.90;99.90;;;;;;6207076;22;20013;-88
2023/11/19 12:01:05;;;;;;;0.00;0.00;;;12.90;99.90;;;;;;6199446;22;20200;-89
2023/11/19 12:08:42;;;;;;;0.00;0.00;;;;;;;;;;6199120;23;20059;-88
2023/11/19 12:11:08;;;;;;;0.00;0.00;;;;;;;;;;6200142;22;20013;-89
2023/11/19 12:13:52;;;;;;;0.00;0.00;;;12.90;99.90;;;;;;6199066;23;20005;-87
2023/11/19 12:16:18;;;;;;;0.00;0.00;;;;;;;;;;6197878;23;20004;-88
2023/11/19 12:18:44;;;;;;;0.00;0.00;;;12.90;99.90;;;;;;6198639;22;20005;-86
2023/11/19 12:21:10;;;;;;;0.00;0.00;;;;;;;;;;6196360;23;20028;-89
2023/11/19 12:23:44;;;;;;;0.00;0.00;;;13.20;99.90;;;;;;6198922;23;20016;-89
2023/11/19 12:26:31;;;;;;;0.00;0.00;;;13.30;99.90;;;;;;6198347;23;20122;-90
2023/11/19 12:29:00;;;;;;;0.00;0.00;;;13.30;99.90;;;;;;6196161;23;20033;-90
2023/11/19 12:31:26;;;;;;;0.00;0.00;;;;;;;;;;6198347;23;20377;-91
2023/11/19 12:33:53;;;;;;;0.00;0.00;;;;;;;;;;6198280;23;20063;-87
2023/11/19 12:36:19;;;;;;;0.00;0.00;;;;;;;;;;6199736;23;20001;-90
2023/11/19 12:38:46;;;;;;;0.00;0.00;;;13.50;99.90;;;;;;6199492;23;20013;-89
2023/11/19 12:41:13;;;;;;;0.00;0.00;;;;;;;;;;6198702;23;20005;-91
2023/11/19 12:43:39;;;;;;;0.00;0.00;;;;;;;;;;6196970;23;20005;-91
2023/11/19 12:46:19;;;;;;;0.00;0.00;;;13.20;99.90;;;;;;6198267;23;20028;-90
2023/11/19 12:48:45;;;;;;;0.00;0.00;;;;;;;;;;6196676;23;20005;-91
2023/11/19 12:51:11;;;;;;;0.00;0.00;;;;;;;;;;6196304;23;20008;-88
2023/11/19 12:53:58;;;;;;;0.00;0.00;;;13.20;99.90;;;;;;6195367;23;20016;-88
2023/11/19 12:56:24;;;;;;;0.00;0.00;;;;;;;;;;6197838;23;20065;-91
2023/11/19 12:58:50;;;;;;;0.00;0.00;;;;;;;;;;6199134;23;20005;-91
2023/11/19 13:01:18;;;;;;;0.00;0.00;;;12.90;99.90;;;;;;6198855;23;20049;-87
2023/11/19 13:03:45;;;;;;;0.00;0.00;;;;;;;;;;6200737;23;20001;-89
2023/11/19 13:06:12;;;;;;;0.00;0.00;;;13.00;99.90;;;;;;6201721;23;20005;-89
2023/11/19 13:08:45;;;;;;;0.00;0.00;;;12.90;99.90;;;;;;6201943;23;20017;-88
2023/11/19 13:11:12;;;;;;;0.00;0.00;;;12.90;99.90;;;;;;6199822;23;20096;-90
2023/11/19 13:13:59;;;;;;;0.00;0.00;;;12.70;99.90;;;;;;6201445;23;20005;-90
2023/11/19 13:16:25;;;;;;;0.00;0.00;;;;;;;;;;6201631;23;20060;-89
2023/11/19 13:18:51;;;;;;;0.00;0.00;;;;;;;;;;6201210;23;20357;-88
2023/11/19 13:21:18;;;;;;;0.00;0.00;;;12.90;99.90;;;;;;6201996;23;20015;-89
2023/11/19 13:23:44;;;;;;;0.00;0.00;;;;;;;;;;6201231;23;20005;-92
2023/11/19 13:26:10;;;;;;;0.00;0.00;;;;;;;;;;6200997;22;20009;-90
2023/11/19 13:28:46;;;;;;;0.00;0.00;;;12.80;99.90;;;;;;6199127;22;19993;-91
2023/11/19 13:31:12;;;;;;;0.00;0.00;;;;;;;;;;6203154;22;20250;-89
2023/11/19 13:33:38;;;;;;;0.00;0.00;;;;;;;;;;6197224;23;20088;-90
2023/11/19 13:36:07;;;;;;;0.00;0.00;;;12.60;99.90;;;;;;6203543;22;20065;-89
2023/11/19 13:38:36;;;;;;;0.00;0.00;;;12.50;99.90;;;;;;6201571;23;20005;-88
2023/11/19 13:41:02;;;;;;;0.00;0.00;;;;;;;;;;6203186;23;20009;-91
2023/11/19 13:43:28;;;;;;;0.00;0.00;;;;;;;;;;6204863;22;20001;-91
2023/11/19 13:45:55;;;;;;;0.00;0.00;;;12.70;99.90;;;;;;6203072;23;20005;-90
2023/11/19 13:48:21;;;;;;;0.00;0.00;;;;;;;;;;6203464;22;20033;-88
2023/11/19 13:50:46;;;;;;;0.00;0.00;;;12.60;99.90;;;;;;6201004;23;20019;-89
2023/11/19 13:53:12;;;;;;;0.00;0.00;;;;;;;;;;6199810;22;20019;-88
2023/11/19 13:55:38;;;;;;;0.00;0.00;;;;;;;;;;6203149;23;20016;-90
2023/11/19 13:58:04;;;;;;;0.00;0.00;;;12.60;99.90;;;;;;6203125;23;20053;-90
2023/11/19 14:00:30;;;;;;;0.00;0.00;;;;;;;;;;6195363;23;20061;-89
2023/11/19 14:02:56;;;;;;;0.00;0.00;;;;;;;;;;6194853;23;20008;-91
2023/11/19 14:05:23;;;;;;;0.00;0.00;;;12.70;99.90;;;;;;6192626;23;20008;-90
2023/11/19 14:07:49;;;;;;;0.00;0.00;;;;;;;;;;6202660;22;20004;-92
2023/11/19 14:10:18;;;;;;;0.00;0.00;;;;;;;;;;6174410;22;20032;-90
2023/11/19 14:12:44;;;;;;;0.00;0.00;;;;;;;;;;6174637;23;20073;-91
2023/11/19 14:15:12;;;;;;;0.00;0.00;;;;;;;;;;6175347;23;20053;-91